Data for 08/06/2007

Time Sea-Level Adjusted Pressure Absolute Pressure Temperature Relative Humidity Dew Point   
(mb) (inHg) (mb) (inHg) (C) (F) (%) (C) (F)
00:05 1018 30.06 847 25.01 13.1 55.5 86 10.8 51.4
00:10 1018 30.06 847 25.01 13.1 55.6 84 10.5 50.8
00:15 1018 30.06 847 25.01 13.3 56 82 10.4 50.7
00:20 1018 30.06 847 25.01 13.4 56.1 82 10.4 50.7
00:25 1018 30.06 847 25.01 13.3 55.9 81 10.2 50.3
00:30 1018 30.06 847 25.01 13.2 55.8 83 10.4 50.8
00:35 1018 30.06 847 25.01 13 55.3 85 10.6 51.1
00:40 1018 30.06 847 25.01 12.8 55 85 10.3 50.5
00:45 1018 30.06 847 25.01 12.8 55.1 85 10.4 50.7
00:50 1018 30.06 847 25.01 12.7 54.9 86 10.4 50.8
00:55 1018 30.06 847 25.01 12.6 54.7 86 10.3 50.5
01:00 1018 30.06 847 25.01 12.5 54.5 86 10.3 50.5
01:05 1018 30.06 847 25.01 12.2 54 88 10.3 50.6
01:10 1018 30.06 847 25.01 11.9 53.5 89 10.1 50.2
01:15 1018 30.06 847 25.01 11.8 53.3 87 9.8 49.6
01:20 1018 30.06 847 25.01 11.8 53.3 88 10 49.9
01:25 1018 30.06 847 25.01 11.8 53.2 89 10 50
01:30 1018 30.06 847 25.01 11.7 53.1 89 9.9 49.9
01:35 1017 30.03 847 25.01 11.7 53.1 88 9.9 49.8
01:40 1018 30.06 847 25.01 11.4 52.5 90 9.9 49.8
01:45 1018 30.06 847 25.01 11.1 51.9 91 9.7 49.5
01:50 1018 30.06 847 25.01 11 51.8 90 9.5 49.1
01:55 1017 30.03 847 25.01 11 51.7 90 9.4 48.9
02:00 1017 30.03 847 25.01 10.9 51.5 91 9.5 49
02:05 1017 30.03 847 25.01 10.7 51.3 91 9.4 48.9
02:10 1017 30.03 847 25.01 10.8 51.4 91 9.4 48.9
02:15 1017 30.03 847 25.01 10.8 51.4 91 9.3 48.7
02:20 1017 30.03 847 25.01 10.7 51.3 91 9.4 48.8
02:25 1017 30.03 847 25.01 10.7 51.2 91 9.3 48.8
02:30 1017 30.03 847 25.01 10.7 51.3 91 9.3 48.7
02:35 1017 30.03 846 24.98 10.8 51.4 91 9.3 48.8
02:40 1017 30.03 847 25.01 10.8 51.5 90 9.3 48.8
02:45 1017 30.03 847 25.01 10.7 51.3 90 9.2 48.6
02:50 1017 30.03 847 25.01 10.7 51.2 90 9.2 48.5
02:55 1017 30.03 846 24.98 10.6 51.1 90 9 48.3
03:00 1017 30.03 846 24.98 10.8 51.5 89 9.1 48.3
03:05 1017 30.03 846 24.98 10.8 51.5 89 9.1 48.4
03:10 1017 30.03 846 24.98 10.8 51.4 88 9 48.1
03:15 1017 30.03 846 24.98 10.9 51.7 86 8.8 47.8
03:20 1017 30.03 846 24.98 10.9 51.6 87 8.9 48
03:25 1017 30.03 846 24.98 10.8 51.4 88 8.9 48
03:30 1017 30.03 846 24.98 10.5 50.9 90 8.9 48
03:35 1017 30.03 846 24.98 10.2 50.4 91 8.8 47.8
03:40 1017 30.03 846 24.98 10.2 50.4 90 8.7 47.7
03:45 1017 30.03 846 24.98 10.2 50.3 90 8.6 47.4
03:50 1017 30.03 846 24.98 10.4 50.7 87 8.4 47.1
03:55 1017 30.03 846 24.98 10.6 51 87 8.6 47.5
04:00 1017 30.03 846 24.98 10.4 50.6 88 8.5 47.3
04:05 1017 30.03 846 24.98 10.1 50.1 90 8.5 47.2
04:10 1017 30.03 846 24.98 9.9 49.8 90 8.4 47.1
04:15 1017 30.03 846 24.98 9.7 49.5 91 8.3 47
04:20 1017 30.03 846 24.98 9.4 49 93 8.3 46.9
04:25 1017 30.03 846 24.98 9.5 49.2 92 8.3 46.9
04:30 1017 30.03 846 24.98 9.8 49.6 91 8.4 47.2
04:35 1017 30.03 846 24.98 9.8 49.7 92 8.5 47.3
04:40 1017 30.03 846 24.98 9.8 49.6 92 8.5 47.2
04:45 1017 30.03 846 24.98 9.6 49.2 92 8.4 47.1
04:50 1017 30.03 846 24.98 9.5 49 92 8.2 46.8
04:55 1017 30.03 846 24.98 9.5 49 91 8.1 46.6
05:00 1017 30.03 846 24.98 9.5 49 91 8.1 46.5
05:05 1017 30.03 846 24.98 9.5 49.2 90 8 46.5
05:10 1017 30.03 846 24.98 9.6 49.3 90 8 46.4
05:15 1017 30.03 846 24.98 9.5 49.1 90 8 46.3
05:20 1017 30.03 846 24.98 9.4 49 90 7.9 46.1
05:25 1017 30.03 846 24.98 9.5 49 90 8 46.3
05:30 1017 30.03 846 24.98 9.3 48.7 91 7.9 46.2
05:35 1017 30.03 846 24.98 9.1 48.3 92 7.9 46.1
05:40 1017 30.03 846 24.98 9.2 48.5 92 8 46.4
05:45 1017 30.03 846 24.98 9.2 48.5 92 8 46.3
05:50 1017 30.03 846 24.98 9.1 48.4 93 8 46.4
05:55 1017 30.03 846 24.98 9.1 48.4 93 7.9 46.3
06:00 1017 30.03 846 24.98 9.1 48.3 93 8 46.3
06:05 1017 30.03 846 24.98 9.1 48.4 92 7.9 46.2
06:10 1017 30.03 846 24.98 9 48.2 92 7.8 46
06:15 1017 30.03 846 24.98 8.9 48 92 7.7 45.8
06:20 1017 30.03 846 24.98 8.9 48.1 92 7.7 45.9
06:25 1017 30.03 846 24.98 9 48.3 92 7.7 45.9
06:30 1017 30.03 846 24.98 9.2 48.6 91 7.8 46.1
06:35 1017 30.03 846 24.98 9.3 48.8 90 7.8 46.1
06:40 1017 30.03 846 24.98 9.3 48.7 91 7.8 46.1
06:45 1017 30.03 846 24.98 9.4 48.9 90 7.8 46.1
06:50 1017 30.03 846 24.98 9.7 49.4 89 7.9 46.2
06:55 1017 30.03 846 24.98 10 49.9 87 8 46.3
07:00 1017 30.03 846 24.98 10.2 50.3 87 8 46.4
07:05 1017 30.03 846 24.98 10.2 50.4 86 8.1 46.5
07:10 1017 30.03 846 24.98 10.3 50.5 86 8.1 46.6
07:15 1017 30.03 846 24.98 10.4 50.8 86 8.2 46.7
07:20 1017 30.03 847 25.01 10.4 50.7 86 8.2 46.7
07:25 1017 30.03 847 25.01 10.4 50.8 86 8.2 46.8
07:30 1017 30.03 847 25.01 10.6 51.1 85 8.2 46.7
07:35 1017 30.03 847 25.01 10.8 51.5 84 8.2 46.7
07:40 1017 30.03 847 25.01 10.9 51.5 84 8.3 47
07:45 1017 30.03 847 25.01 11 51.7 84 8.4 47.2
07:50 1018 30.06 847 25.01 11.2 52.2 83 8.5 47.3
07:55 1018 30.06 847 25.01 11.5 52.7 82 8.6 47.4
08:00 1018 30.06 847 25.01 11.7 53.1 83 9 48.2
08:05 1018 30.06 847 25.01 12.2 54 80 8.9 47.9
08:10 1018 30.06 847 25.01 12.3 54.1 80 9 48.3
08:15 1018 30.06 847 25.01 12.3 54.2 81 9.2 48.6
08:20 1018 30.06 847 25.01 12.3 54.2 80 9 48.2
08:25 1018 30.06 847 25.01 12.6 54.7 80 9.3 48.7
08:30 1017 30.03 847 25.01 13 55.5 78 9.3 48.8
08:35 1017 30.03 847 25.01 13.3 56 80 10 50
08:40 1018 30.06 847 25.01 13.8 56.9 78 10 50
08:45 1018 30.06 847 25.01 13.9 56.9 77 9.8 49.7
08:50 1018 30.06 847 25.01 14.3 57.7 75 10 49.9
08:55 1018 30.06 847 25.01 14.7 58.5 73 10 50.1
09:00 1018 30.06 847 25.01 15 59 73 10.2 50.3
09:05 1018 30.06 847 25.01 15.1 59.2 71 10 50
09:10 1018 30.06 847 25.01 15.2 59.4 71 10.1 50.2
09:15 1018 30.06 847 25.01 15.5 59.9 71 10.3 50.6
09:20 1018 30.06 847 25.01 15.7 60.2 67 9.7 49.5
09:25 1018 30.06 847 25.01 15.5 59.8 69 9.8 49.7
09:30 1018 30.06 847 25.01 15.7 60.3 68 9.9 49.8
09:35 1018 30.06 847 25.01 16.3 61.3 64 9.6 49.2
09:40 1018 30.06 847 25.01 16.1 61 67 10 50.1
09:45 1018 30.06 847 25.01 16.6 61.8 65 10 49.9
09:50 1018 30.06 847 25.01 16.8 62.3 65 10.3 50.6
09:55 1018 30.06 847 25.01 17.1 62.8 62 10 49.9
10:00 1018 30.06 847 25.01 17 62.6 62 9.7 49.5
10:05 1018 30.06 847 25.01 16.3 61.3 63 9.4 48.9
10:10 1017 30.03 847 25.01 16.6 61.9 63 9.7 49.5
10:15 1017 30.03 847 25.01 16.9 62.3 62 9.7 49.4
10:20 1018 30.06 847 25.01 17.9 64.3 57 9.4 48.9
10:25 1018 30.06 847 25.01 19 66.2 54 9.5 49.2
10:30 1017 30.03 847 25.01 18.3 64.9 59 10.2 50.4
10:35 1017 30.03 847 25.01 17.3 63.2 60 9.6 49.3
10:40 1017 30.03 847 25.01 17.2 63 60 9.5 49.1
10:45 1017 30.03 847 25.01 17.1 62.7 61 9.5 49.1
10:50 1017 30.03 847 25.01 18 64.4 56 9.1 48.4
10:55 1017 30.03 847 25.01 19.6 67.2 54 10 50
11:00 1017 30.03 847 25.01 19.8 67.6 52 9.8 49.6
11:05 1017 30.03 847 25.01 19.7 67.4 53 9.9 49.9
11:10 1017 30.03 847 25.01 19.4 66.9 53 9.6 49.3
11:15 1017 30.03 847 25.01 19.2 66.6 54 9.7 49.5
11:20 1017 30.03 847 25.01 18.9 66 54 9.5 49.1
11:25 1017 30.03 846 24.98 19.5 67.1 53 9.6 49.4
11:30 1017 30.03 846 24.98 20.1 68.1 52 10 50
11:35 1017 30.03 846 24.98 20.4 68.7 52 10.3 50.5
11:40 1017 30.03 846 24.98 20.1 68.2 51 9.7 49.4
11:45 1017 30.03 846 24.98 20.7 69.3 49 9.7 49.5
11:50 1017 30.03 846 24.98 20.7 69.2 49 9.6 49.3
11:55 1017 30.03 846 24.98 21.4 70.4 47 9.9 49.8
12:00 1017 30.03 846 24.98 20.6 69 52 10.5 50.9
12:05 1017 30.03 846 24.98 20.1 68.1 50 9.5 49
12:10 1017 30.03 846 24.98 19.8 67.7 50 9.3 48.8
12:15 1017 30.03 846 24.98 19.8 67.6 50 9.1 48.4
12:20 1017 30.03 846 24.98 20.7 69.3 46 9 48.1
12:25 1017 30.03 846 24.98 21.4 70.5 46 9.4 49
12:30 1017 30.03 846 24.98 21.6 70.8 43 8.7 47.6
12:35 1017 30.03 846 24.98 22.2 72 41 8.6 47.5
12:40 1017 30.03 846 24.98 23 73.3 41 9.2 48.6
12:45 1017 30.03 846 24.98 23.6 74.5 37 8.5 47.2
12:50 1016 30 846 24.98 23.6 74.5 39 9.1 48.5
12:55 1016 30 846 24.98 23.3 73.9 41 9.6 49.4
13:00 1016 30 846 24.98 23.1 73.6 42 9.8 49.6
13:05 1016 30 845 24.95 23.4 74 41 9.7 49.5
13:10 1016 30 845 24.95 24 75.2 39 9.5 49.1
13:15 1016 30 845 24.95 23.9 75.1 38 9.1 48.3
13:20 1016 30 845 24.95 24.3 75.8 39 9.7 49.4
13:25 1016 30 845 24.95 24.3 75.7 37 9 48.3
13:30 1016 30 845 24.95 23.7 74.6 39 9 48.3
13:35 1016 30 845 24.95 23.9 75.1 39 9.3 48.7
13:40 1016 30 845 24.95 24.5 76 35 8.4 47.2
13:45 1016 30 845 24.95 24.6 76.2 30 6.2 43.1
13:50 1016 30 845 24.95 23.7 74.7 32 6.2 43.2
13:55 1016 30 845 24.95 24.1 75.4 33 7 44.5
14:00 1015 29.97 845 24.95 25.3 77.5 29 6.1 42.9
14:05 1015 29.97 845 24.95 25.2 77.4 28 5.8 42.4
14:10 1015 29.97 845 24.95 24.9 76.8 31 6.6 44
14:15 1015 29.97 845 24.95 25.5 78 25 4.2 39.6
14:20 1015 29.97 844 24.92 25.1 77.1 27 4.8 40.7
14:25 1015 29.97 844 24.92 25.8 78.5 26 5.3 41.5
14:30 1015 29.97 844 24.92 25.1 77.2 27 5.1 41.1
14:35 1015 29.97 844 24.92 25.8 78.4 26 5 41
14:40 1015 29.97 844 24.92 26.7 80.1 24 4.6 40.2
14:45 1015 29.97 844 24.92 26.2 79.1 24 4.4 39.9
14:50 1015 29.97 844 24.92 26.1 78.9 23 3.3 37.9
14:55 1015 29.97 844 24.92 26.6 79.8 22 3.3 37.9
15:00 1015 29.97 844 24.92 27 80.6 21 3.4 38.1
15:05 1015 29.97 844 24.92 27.3 81.1 21 3.2 37.8
15:10 1015 29.97 844 24.92 27.3 81.1 19 2.1 35.8
15:15 1015 29.97 844 24.92 26.8 80.3 19 1.8 35.3
15:20 1014 29.94 844 24.92 26.5 79.8 19 1 33.8
15:25 1014 29.94 844 24.92 26.6 79.9 19 1.4 34.6
15:30 1015 29.97 844 24.92 26.5 79.7 19 1.2 34.1
15:35 1015 29.97 844 24.92 26.3 79.3 21 2.7 36.9
15:40 1015 29.97 844 24.92 26.4 79.5 19 1.1 34
15:45 1015 29.97 844 24.92 26.9 80.4 16 -0.5 31.1
15:50 1015 29.97 844 24.92 26.7 80 20 2.3 36.2
15:55 1014 29.94 844 24.92 27 80.6 20 2.3 36.2
16:00 1014 29.94 844 24.92 27.9 82.2 16 0.2 32.4
16:05 1014 29.94 844 24.92 27.9 82.3 17 1.3 34.3
16:10 1014 29.94 843 24.89 27.8 82 16 -0.3 31.4
16:15 1014 29.94 843 24.89 26.7 80 19 1.5 34.6
16:20 1014 29.94 843 24.89 26.5 79.7 18 0.9 33.6
16:25 1014 29.94 843 24.89 27.1 80.8 19 1.9 35.4
16:30 1014 29.94 843 24.89 27.1 80.8 19 2.1 35.7
16:35 1014 29.94 843 24.89 27.6 81.7 18 1.4 34.6
16:40 1014 29.94 843 24.89 27 80.5 18 1.2 34.2
16:45 1014 29.94 843 24.89 26.8 80.3 18 0.7 33.3
16:50 1014 29.94 843 24.89 26.6 80 19 1.2 34.1
16:55 1014 29.94 843 24.89 26.7 80.1 20 2 35.5
17:00 1014 29.94 843 24.89 27.3 81.1 18 1.4 34.5
17:05 1014 29.94 843 24.89 27.3 81.1 18 1.2 34.2
17:10 1014 29.94 843 24.89 27.6 81.6 18 1.5 34.6
17:15 1014 29.94 843 24.89 28.1 82.6 18 1.7 35.1
17:20 1014 29.94 843 24.89 27.6 81.6 19 2.5 36.5
17:25 1014 29.94 843 24.89 27.2 80.9 19 1.5 34.6
17:30 1014 29.94 843 24.89 27 80.6 19 1.8 35.3
17:35 1014 29.94 843 24.89 26.8 80.3 19 1.6 34.8
17:40 1013 29.91 843 24.89 27.3 81.2 19 1.7 35.1
17:45 1013 29.91 843 24.89 28.1 82.5 19 2.4 36.3
17:50 1013 29.91 843 24.89 28.2 82.7 18 2.3 36.1
17:55 1013 29.91 843 24.89 28.4 83.1 18 2.1 35.8
18:00 1013 29.91 843 24.89 27.5 81.6 19 1.9 35.4
18:05 1013 29.91 843 24.89 27.1 80.7 19 1.8 35.2
18:10 1013 29.91 843 24.89 27.1 80.8 18 1 33.7
18:15 1013 29.91 843 24.89 27.3 81.1 18 1.4 34.4
18:20 1013 29.91 843 24.89 26.9 80.4 20 2.3 36.1
18:25 1013 29.91 843 24.89 26.6 79.8 20 1.7 35.1
18:30 1014 29.94 843 24.89 26.3 79.3 21 2.3 36.2
18:35 1013 29.91 843 24.89 26.2 79.2 19 1.2 34.2
18:40 1013 29.91 843 24.89 26 78.9 20 1.3 34.3
18:45 1013 29.91 843 24.89 25.8 78.4 19 0.8 33.5
18:50 1013 29.91 843 24.89 25.7 78.3 19 0.9 33.7
18:55 1013 29.91 843 24.89 25.7 78.2 20 1.2 34.1
19:00 1013 29.91 843 24.89 25.5 78 21 2.1 35.8
19:05 1013 29.91 843 24.89 25.6 78.1 21 1.9 35.5
19:10 1013 29.91 843 24.89 25.7 78.2 23 3.4 38.2
19:15 1013 29.91 843 24.89 25.6 78 21 2.1 35.7
19:20 1013 29.91 843 24.89 25.5 77.9 21 2 35.7
19:25 1013 29.91 843 24.89 25.4 77.7 21 1.6 34.9
19:30 1013 29.91 843 24.89 25.4 77.7 21 1.6 34.9
19:35 1013 29.91 843 24.89 25.4 77.8 24 3.7 38.6
19:40 1013 29.91 843 24.89 25.5 78 23 3.4 38.2
19:45 1013 29.91 843 24.89 25.5 77.9 22 2.6 36.7
19:50 1013 29.91 843 24.89 25.3 77.5 34 8.5 47.2
19:55 1014 29.94 843 24.89 23.9 75 42 10.2 50.4
20:00 1014 29.94 843 24.89 23.2 73.7 38 8.3 46.9
20:05 1014 29.94 843 24.89 22.9 73.3 38 8 46.4
20:10 1014 29.94 843 24.89 22.7 72.8 39 8.1 46.6
20:15 1014 29.94 843 24.89 22.4 72.4 41 8.5 47.4
20:20 1013 29.91 842 24.86 22.1 71.8 41 8.3 46.9
20:25 1013 29.91 842 24.86 22.1 71.8 38 7.3 45.2
20:30 1013 29.91 843 24.89 22.4 72.3 38 7.7 45.8
20:35 1014 29.94 843 24.89 22.4 72.3 40 8.2 46.8
20:40 1014 29.94 843 24.89 22.5 72.6 35 6.6 43.8
20:45 1014 29.94 843 24.89 22.4 72.3 36 6.9 44.4
20:50 1014 29.94 843 24.89 22.5 72.5 39 8 46.3
20:55 1014 29.94 843 24.89 22.4 72.3 33 5.4 41.7
21:00 1014 29.94 843 24.89 22.3 72.1 34 5.9 42.7
21:05 1014 29.94 843 24.89 22.3 72.1 33 5.6 42.1
21:10 1014 29.94 843 24.89 22.2 72 35 6.3 43.4
21:15 1014 29.94 843 24.89 21.9 71.5 40 7.9 46.1
21:20 1014 29.94 843 24.89 21.7 71 43 8.8 47.8
21:25 1014 29.94 843 24.89 21.5 70.8 40 7.6 45.7
21:30 1014 29.94 843 24.89 21.3 70.3 39 6.8 44.2
21:35 1014 29.94 843 24.89 21.5 70.7 43 8.4 47.2
21:40 1014 29.94 843 24.89 21.4 70.5 39 7.1 44.9
21:45 1014 29.94 843 24.89 21.1 70.1 40 7.3 45.2
21:50 1014 29.94 843 24.89 20.9 69.6 43 7.9 46.2
21:55 1014 29.94 843 24.89 20.5 69 39 6.2 43.1
22:00 1014 29.94 843 24.89 21 69.8 33 4.5 40.1
22:05 1014 29.94 843 24.89 21.5 70.6 34 5.3 41.5
22:10 1014 29.94 843 24.89 21.1 70 35 5.4 41.7
22:15 1014 29.94 843 24.89 20.8 69.5 35 4.9 40.8
22:20 1014 29.94 843 24.89 20.8 69.5 34 4.7 40.5
22:25 1014 29.94 843 24.89 20.7 69.2 37 5.8 42.4
22:30 1014 29.94 843 24.89 20.5 68.8 36 5.2 41.3
22:35 1014 29.94 843 24.89 20.5 68.8 36 5.2 41.4
22:40 1014 29.94 843 24.89 20.3 68.6 40 6.6 43.9
22:45 1014 29.94 843 24.89 20.2 68.3 43 7.2 44.9
22:50 1014 29.94 843 24.89 20.2 68.3 39 6 42.8
22:55 1014 29.94 843 24.89 19.9 67.9 41 6.4 43.5
23:00 1014 29.94 843 24.89 19.6 67.3 40 5.7 42.3
23:05 1014 29.94 843 24.89 20 67.9 37 4.9 40.9
23:10 1014 29.94 843 24.89 20 67.9 39 5.9 42.6
23:15 1014 29.94 843 24.89 19.9 67.8 37 5 41
23:20 1014 29.94 843 24.89 19.9 67.9 39 5.7 42.2
23:25 1014 29.94 843 24.89 19.6 67.3 43 6.7 44
23:30 1014 29.94 843 24.89 19.2 66.5 42 6 42.9
23:35 1014 29.94 843 24.89 18.7 65.7 44 6.3 43.3
23:40 1014 29.94 843 24.89 18.4 65.1 45 6.5 43.7
23:45 1014 29.94 843 24.89 17.9 64.3 48 6.8 44.2
23:50 1014 29.94 843 24.89 17.4 63.2 50 7 44.5
23:55 1014 29.94 843 24.89 17.6 63.6 47 6.2 43.2
24:00 1014 29.94 843 24.89 17.8 64.1 46 6.1 43